Time;durP1;ratioP1;P1;durP2;ratioP2;P2;SDS_P1;SDS_P2;PMS_P1;PMS_P2;Temp;Humidity;BMP_temperature;BMP_pressure;BME280_temperature;BME280_humidity;BME280_pressure;Samples;Min_cycle;Max_cycle;Signal;HPM_P1;HPM_P2
2024/01/06 00:01:41;;;;;;;8.90;2.40;;;6.00;99.90;;;;;;5065823;28;20284;-47
2024/01/06 00:04:06;;;;;;;9.20;2.67;;;6.10;99.90;;;;;;5065778;28;20116;-47
2024/01/06 00:06:32;;;;;;;10.73;2.70;;;6.10;99.90;;;;;;5065782;28;20037;-48
2024/01/06 00:08:58;;;;;;;12.73;3.63;;;6.10;99.90;;;;;;5065673;28;20056;-48
2024/01/06 00:11:23;;;;;;;10.77;3.40;;;6.10;99.90;;;;;;5065557;28;20082;-47
2024/01/06 00:13:49;;;;;;;7.38;2.50;;;6.00;99.90;;;;;;5066005;28;20088;-47
2024/01/06 00:16:18;;;;;;;13.35;3.50;;;6.00;99.90;;;;;;5065602;28;20218;-46
2024/01/06 00:18:45;;;;;;;10.07;3.28;;;6.10;99.90;;;;;;5064685;28;20032;-47
2024/01/06 00:21:10;;;;;;;9.25;3.00;;;6.10;99.90;;;;;;5048094;28;20043;-47
2024/01/06 00:23:36;;;;;;;8.98;3.30;;;6.10;99.90;;;;;;5065513;28;20025;-47
2024/01/06 00:26:02;;;;;;;11.35;3.50;;;6.10;99.90;;;;;;5065511;28;20075;-47
2024/01/06 00:28:28;;;;;;;11.38;3.65;;;6.10;99.90;;;;;;5064598;28;20041;-47
2024/01/06 00:30:53;;;;;;;12.95;3.00;;;6.10;99.90;;;;;;5065657;28;20290;-48
2024/01/06 00:33:19;;;;;;;11.90;3.95;;;6.10;99.90;;;;;;5065530;28;20086;-47
2024/01/06 00:35:45;;;;;;;13.65;2.85;;;6.10;99.90;;;;;;5065184;28;20059;-47
2024/01/06 00:38:10;;;;;;;13.85;3.88;;;6.20;99.90;;;;;;5065280;28;20031;-47
2024/01/06 00:40:37;;;;;;;15.52;4.30;;;6.20;99.90;;;;;;5065205;28;20167;-46
2024/01/06 00:43:02;;;;;;;9.70;3.65;;;6.20;99.90;;;;;;5064542;28;20125;-46
2024/01/06 00:45:28;;;;;;;9.20;2.92;;;6.20;99.90;;;;;;5065192;28;20025;-46
2024/01/06 00:47:54;;;;;;;9.45;2.95;;;6.20;99.90;;;;;;5065244;28;20298;-47
2024/01/06 00:50:19;;;;;;;7.35;2.60;;;6.20;99.90;;;;;;5065402;28;20182;-47
2024/01/06 00:52:45;;;;;;;9.20;3.13;;;6.10;99.90;;;;;;5065408;28;20059;-47
2024/01/06 00:55:11;;;;;;;10.25;2.67;;;6.10;99.90;;;;;;5065154;28;20222;-46
2024/01/06 00:57:37;;;;;;;7.45;3.13;;;6.10;99.90;;;;;;5065447;28;20052;-47
2024/01/06 01:00:05;;;;;;;6.82;2.58;;;6.00;99.90;;;;;;5065226;28;20095;-47
2024/01/06 01:02:31;;;;;;;8.35;2.60;;;6.00;99.90;;;;;;5064246;28;20108;-48
2024/01/06 01:04:57;;;;;;;6.50;2.40;;;6.00;99.90;;;;;;5065292;28;20198;-47
2024/01/06 01:07:23;;;;;;;9.82;2.38;;;6.10;99.90;;;;;;5065399;28;20266;-49
2024/01/06 01:09:49;;;;;;;9.90;2.60;;;6.10;99.90;;;;;;5065036;28;20337;-47
2024/01/06 01:12:14;;;;;;;4.72;2.35;;;6.10;99.90;;;;;;5064094;28;20032;-48
2024/01/06 01:14:40;;;;;;;7.03;2.30;;;6.00;99.90;;;;;;5047538;28;20217;-47
2024/01/06 01:17:06;;;;;;;8.55;2.70;;;6.00;99.90;;;;;;5064750;28;20291;-46
2024/01/06 01:19:31;;;;;;;10.55;3.60;;;6.00;99.90;;;;;;5064916;28;20025;-46
2024/01/06 01:21:57;;;;;;;8.40;2.60;;;6.00;99.90;;;;;;5065147;28;20029;-46
2024/01/06 01:24:23;;;;;;;8.10;2.40;;;6.00;99.90;;;;;;5065041;28;20032;-47
2024/01/06 01:26:49;;;;;;;8.50;2.55;;;6.00;99.90;;;;;;5047319;28;20218;-46
2024/01/06 01:29:16;;;;;;;7.47;2.20;;;6.00;99.90;;;;;;5064068;28;20074;-46
2024/01/06 01:31:42;;;;;;;7.45;2.53;;;5.90;99.90;;;;;;5064188;28;20029;-49
2024/01/06 01:34:08;;;;;;;6.57;2.20;;;5.80;99.90;;;;;;5064882;28;20037;-46
2024/01/06 01:36:33;;;;;;;7.32;2.08;;;5.70;99.90;;;;;;5064991;28;20198;-47
2024/01/06 01:38:59;;;;;;;4.80;1.80;;;5.70;99.90;;;;;;5064938;28;20243;-46
2024/01/06 01:41:25;;;;;;;5.13;1.88;;;5.70;99.90;;;;;;5064593;28;20179;-46
2024/01/06 01:43:57;;;;;;;7.28;1.88;;;5.70;99.90;;;;;;5047120;28;20024;-47
2024/01/06 01:46:30;;;;;;;6.80;1.80;;;5.60;99.90;;;;;;5065034;28;20063;-46
2024/01/06 01:48:56;;;;;;;7.28;2.38;;;5.70;99.90;;;;;;5064871;28;20048;-46
2024/01/06 01:51:22;;;;;;;6.35;2.30;;;5.70;99.90;;;;;;5063825;28;20035;-46
2024/01/06 01:53:49;;;;;;;5.82;2.30;;;5.70;99.90;;;;;;5048834;28;20024;-46
2024/01/06 01:56:15;;;;;;;6.13;1.83;;;5.70;99.90;;;;;;5067298;28;20025;-46
2024/01/06 01:58:40;;;;;;;4.38;1.80;;;5.70;99.90;;;;;;5068320;28;20028;-46
2024/01/06 02:01:06;;;;;;;7.50;2.08;;;5.80;99.90;;;;;;5068139;28;20040;-47
2024/01/06 02:03:32;;;;;;;8.30;1.95;;;5.80;99.90;;;;;;5068021;28;20306;-47
2024/01/06 02:05:58;;;;;;;5.75;1.80;;;5.80;99.90;;;;;;5067738;28;20036;-46
2024/01/06 02:08:23;;;;;;;4.95;1.73;;;5.90;99.90;;;;;;5067908;28;20051;-46
2024/01/06 02:10:49;;;;;;;4.75;1.80;;;5.90;99.90;;;;;;5068178;28;20152;-46
2024/01/06 02:13:15;;;;;;;7.03;2.10;;;6.00;99.90;;;;;;5067958;28;20037;-46
2024/01/06 02:15:40;;;;;;;6.43;1.83;;;6.00;99.90;;;;;;5067711;28;20167;-46
2024/01/06 02:18:06;;;;;;;6.25;1.70;;;6.00;99.90;;;;;;5050317;28;20082;-46
2024/01/06 02:20:32;;;;;;;8.10;1.75;;;6.00;99.90;;;;;;5066903;28;20033;-47
2024/01/06 02:23:00;;;;;;;6.18;1.70;;;6.00;99.90;;;;;;5067937;28;20029;-46
2024/01/06 02:25:26;;;;;;;7.65;1.80;;;6.10;99.90;;;;;;5067005;28;20040;-47
2024/01/06 02:27:51;;;;;;;8.32;1.92;;;6.10;99.90;;;;;;5066644;28;20048;-47
2024/01/06 02:30:17;;;;;;;4.68;1.67;;;6.10;99.90;;;;;;5067802;28;20036;-47
2024/01/06 02:32:43;;;;;;;5.85;1.80;;;6.10;99.90;;;;;;5067603;28;20109;-47
2024/01/06 02:35:08;;;;;;;7.43;1.73;;;6.10;99.90;;;;;;5066313;28;20195;-49
2024/01/06 02:37:34;;;;;;;5.20;1.73;;;6.10;99.90;;;;;;5067256;28;20025;-48
2024/01/06 02:40:00;;;;;;;4.72;1.60;;;6.10;99.90;;;;;;5066467;28;20057;-49
2024/01/06 02:42:25;;;;;;;7.25;1.70;;;6.10;99.90;;;;;;5067511;28;20088;-50
2024/01/06 02:44:51;;;;;;;7.82;1.85;;;6.00;99.90;;;;;;5067525;28;20025;-48
2024/01/06 02:47:17;;;;;;;3.63;1.52;;;6.00;99.90;;;;;;5067390;28;20096;-47
2024/01/06 02:49:43;;;;;;;6.80;1.90;;;5.90;99.90;;;;;;5066928;28;20359;-49
2024/01/06 02:52:08;;;;;;;5.50;1.70;;;5.90;99.90;;;;;;5067341;28;20029;-49
2024/01/06 02:54:34;;;;;;;5.90;1.48;;;5.80;99.90;;;;;;5066759;28;20037;-50
2024/01/06 02:57:00;;;;;;;6.43;1.60;;;5.80;99.90;;;;;;5067309;28;20282;-50
2024/01/06 02:59:25;;;;;;;4.50;1.75;;;5.70;99.90;;;;;;5066083;28;20047;-50
2024/01/06 03:01:51;;;;;;;5.28;1.60;;;5.70;99.90;;;;;;5067127;28;20037;-49
2024/01/06 03:04:17;;;;;;;6.07;1.80;;;5.70;99.90;;;;;;5065939;28;20322;-47
2024/01/06 03:06:42;;;;;;;5.70;1.73;;;5.70;99.90;;;;;;5066676;28;20017;-47
2024/01/06 03:09:08;;;;;;;5.82;1.75;;;5.80;99.90;;;;;;5066431;28;20067;-50
2024/01/06 03:11:34;;;;;;;3.55;1.70;;;5.80;99.90;;;;;;5066659;28;20090;-49
2024/01/06 03:13:59;;;;;;;6.70;1.92;;;5.80;99.90;;;;;;5066793;28;20017;-46
2024/01/06 03:16:25;;;;;;;5.15;1.65;;;5.90;99.90;;;;;;5065902;28;20040;-46
2024/01/06 03:19:06;;;;;;;4.00;1.35;;;5.90;99.90;;;;;;5065808;28;20061;-46
2024/01/06 03:21:33;;;;;;;6.47;2.20;;;5.90;99.90;;;;;;5066225;28;20055;-47
2024/01/06 03:23:58;;;;;;;3.80;1.98;;;5.90;99.90;;;;;;5066863;28;20033;-46
2024/01/06 03:26:24;;;;;;;6.78;1.83;;;6.00;99.90;;;;;;5066217;28;20024;-46
2024/01/06 03:28:50;;;;;;;7.85;1.85;;;5.90;99.90;;;;;;5066647;28;20029;-49
2024/01/06 03:31:16;;;;;;;5.28;1.65;;;6.00;99.90;;;;;;5066516;28;20032;-49
2024/01/06 03:33:43;;;;;;;8.95;2.00;;;6.00;99.90;;;;;;5066294;28;20067;-47
2024/01/06 03:36:09;;;;;;;7.55;1.77;;;6.10;99.90;;;;;;5065546;28;20028;-47
2024/01/06 03:38:35;;;;;;;9.07;1.80;;;6.20;99.90;;;;;;5065386;28;20047;-50
2024/01/06 03:41:00;;;;;;;6.72;1.77;;;6.20;99.90;;;;;;5065411;28;20024;-47
2024/01/06 03:43:26;;;;;;;11.55;2.25;;;6.30;99.90;;;;;;5066272;28;20069;-47
2024/01/06 03:45:52;;;;;;;7.18;1.73;;;6.30;99.90;;;;;;5066410;28;20033;-47
2024/01/06 03:48:17;;;;;;;7.65;1.80;;;6.30;99.90;;;;;;5066274;28;20297;-47
2024/01/06 03:50:43;;;;;;;7.72;2.00;;;6.30;99.90;;;;;;5066182;28;20036;-48
2024/01/06 03:53:09;;;;;;;6.80;2.00;;;6.30;99.90;;;;;;5065669;28;20103;-50
2024/01/06 03:55:34;;;;;;;6.43;2.03;;;6.30;99.90;;;;;;5065996;28;20029;-47
2024/01/06 03:58:00;;;;;;;7.82;2.10;;;6.30;99.90;;;;;;5065977;28;20029;-47
2024/01/06 04:00:26;;;;;;;6.20;2.10;;;6.30;99.90;;;;;;5066007;28;20029;-47
2024/01/06 04:02:52;;;;;;;5.57;1.70;;;6.30;99.90;;;;;;5048377;28;20031;-46
2024/01/06 04:05:17;;;;;;;7.97;1.95;;;6.30;99.90;;;;;;5066071;28;20060;-47
2024/01/06 04:07:43;;;;;;;6.85;2.28;;;6.20;99.90;;;;;;5065724;28;20025;-47
2024/01/06 04:10:09;;;;;;;5.40;1.55;;;6.20;99.90;;;;;;5065724;28;20060;-48
2024/01/06 04:12:34;;;;;;;4.88;1.63;;;6.30;99.90;;;;;;5065889;28;20349;-48
2024/01/06 04:15:00;;;;;;;7.43;2.00;;;6.30;99.90;;;;;;5065801;28;20064;-46
2024/01/06 04:17:26;;;;;;;8.40;2.33;;;6.30;99.90;;;;;;5065029;28;20162;-47
2024/01/06 04:19:52;;;;;;;6.78;1.70;;;6.30;99.90;;;;;;5064568;28;20052;-47
2024/01/06 04:22:18;;;;;;;8.95;2.00;;;6.30;99.90;;;;;;5064651;28;20039;-47
2024/01/06 04:24:44;;;;;;;4.35;1.60;;;6.30;99.90;;;;;;5065650;28;20093;-49
2024/01/06 04:27:10;;;;;;;4.97;1.60;;;6.30;99.90;;;;;;5047840;28;20074;-49
2024/01/06 04:29:35;;;;;;;5.93;1.42;;;6.20;99.90;;;;;;5065368;28;20090;-48
2024/01/06 04:32:01;;;;;;;4.90;1.52;;;6.30;99.90;;;;;;5064448;28;20040;-49
2024/01/06 04:34:27;;;;;;;7.22;1.65;;;6.30;99.90;;;;;;5065528;28;20043;-49
2024/01/06 04:36:52;;;;;;;5.82;1.55;;;6.30;99.90;;;;;;5065530;28;20029;-48
2024/01/06 04:39:18;;;;;;;4.55;1.58;;;6.20;99.90;;;;;;5064407;28;20115;-49
2024/01/06 04:41:44;;;;;;;4.78;1.20;;;6.10;99.90;;;;;;5065560;28;20024;-49
2024/01/06 04:44:09;;;;;;;3.35;1.30;;;6.00;99.90;;;;;;5065006;28;20282;-50
2024/01/06 04:46:35;;;;;;;4.75;1.88;;;6.00;99.90;;;;;;5064387;28;20071;-47
2024/01/06 04:49:01;;;;;;;6.72;1.70;;;5.90;99.90;;;;;;5065460;28;20156;-49
2024/01/06 04:51:27;;;;;;;4.80;1.48;;;5.80;99.90;;;;;;5065172;28;20094;-49
2024/01/06 04:53:52;;;;;;;8.57;1.85;;;5.80;99.90;;;;;;5065208;28;20048;-50
2024/01/06 04:56:18;;;;;;;5.35;1.73;;;5.80;99.90;;;;;;5065240;28;20181;-49
2024/01/06 04:58:44;;;;;;;6.50;1.50;;;5.80;99.90;;;;;;5064836;28;20176;-50
2024/01/06 05:01:10;;;;;;;8.30;1.70;;;5.80;99.90;;;;;;5065379;28;20029;-49
2024/01/06 05:03:36;;;;;;;7.88;2.05;;;5.70;99.90;;;;;;5065248;28;20187;-49
2024/01/06 05:06:01;;;;;;;9.65;1.45;;;5.70;99.90;;;;;;5065139;28;20044;-49
2024/01/06 05:08:27;;;;;;;5.85;2.20;;;5.60;99.90;;;;;;5063929;28;20310;-48
2024/01/06 05:10:53;;;;;;;10.80;1.83;;;5.60;99.90;;;;;;5065233;28;20052;-49
2024/01/06 05:13:19;;;;;;;7.72;1.67;;;5.70;99.90;;;;;;5064963;28;20048;-48
2024/01/06 05:15:45;;;;;;;8.13;1.90;;;5.70;99.90;;;;;;5064862;28;20275;-49
2024/01/06 05:18:10;;;;;;;10.15;1.60;;;5.80;99.90;;;;;;5065009;28;20133;-46
2024/01/06 05:20:36;;;;;;;9.23;2.00;;;5.70;99.90;;;;;;5064050;28;20039;-49
2024/01/06 05:23:02;;;;;;;10.68;1.80;;;5.70;99.90;;;;;;5064679;28;20029;-50
2024/01/06 05:25:27;;;;;;;8.07;1.67;;;5.70;99.90;;;;;;5065143;28;20068;-48
2024/01/06 05:27:53;;;;;;;5.38;1.40;;;5.70;99.90;;;;;;5065351;28;20044;-48
2024/01/06 05:30:19;;;;;;;7.45;2.03;;;5.60;99.90;;;;;;5068539;28;20029;-48
2024/01/06 05:32:44;;;;;;;5.68;1.52;;;5.60;99.90;;;;;;5068777;28;20036;-49
2024/01/06 05:35:10;;;;;;;6.30;2.25;;;5.50;99.90;;;;;;5068851;28;20198;-49
2024/01/06 05:37:36;;;;;;;7.75;1.60;;;5.50;99.90;;;;;;5068497;28;20060;-47
2024/01/06 05:40:04;;;;;;;7.90;2.08;;;5.40;99.90;;;;;;5067654;28;20028;-46
2024/01/06 05:42:29;;;;;;;6.43;1.52;;;5.50;99.90;;;;;;5068735;28;20029;-45
2024/01/06 05:44:55;;;;;;;7.82;2.00;;;5.40;99.90;;;;;;5068900;28;20059;-47
2024/01/06 05:47:20;;;;;;;6.45;1.85;;;5.50;99.90;;;;;;5068257;28;20025;-47
2024/01/06 05:49:46;;;;;;;7.32;1.40;;;5.40;99.90;;;;;;5068496;28;20040;-47
2024/01/06 05:52:12;;;;;;;6.45;1.80;;;5.30;99.90;;;;;;5068520;28;20021;-45
2024/01/06 05:54:42;;;;;;;6.70;1.33;;;5.30;99.90;;;;;;5068425;28;20088;-46
2024/01/06 05:57:07;;;;;;;;;;;5.20;99.90;;;;;;5068555;28;20033;-46
2024/01/06 05:59:33;;;;;;;7.20;1.83;;;5.10;99.90;;;;;;5068112;28;19919;-46
2024/01/06 06:01:59;;;;;;;8.27;1.70;;;5.00;99.90;;;;;;5068026;28;20033;-46
2024/01/06 06:04:25;;;;;;;9.68;2.20;;;5.00;99.90;;;;;;5068316;28;20122;-47
2024/01/06 06:06:51;;;;;;;8.18;2.05;;;5.00;99.90;;;;;;5068175;28;20019;-49
2024/01/06 06:09:16;;;;;;;6.82;1.88;;;4.90;99.90;;;;;;5067917;28;20037;-49
2024/01/06 06:11:42;;;;;;;3.60;1.67;;;5.00;99.90;;;;;;5067361;28;20037;-49
2024/01/06 06:14:09;;;;;;;8.88;1.88;;;5.00;99.90;;;;;;5068091;28;20025;-50
2024/01/06 06:16:34;;;;;;;9.48;1.73;;;5.10;99.90;;;;;;5066940;28;20028;-45
2024/01/06 06:19:00;;;;;;;5.57;1.73;;;5.10;99.90;;;;;;5067993;28;20096;-45
2024/01/06 06:21:26;;;;;;;7.60;1.63;;;5.20;99.90;;;;;;5066989;28;20032;-45
2024/01/06 06:23:51;;;;;;;9.00;1.90;;;5.20;99.90;;;;;;5066811;28;20114;-46
2024/01/06 06:26:17;;;;;;;5.80;2.25;;;5.20;99.90;;;;;;5067823;28;20029;-45
2024/01/06 06:28:43;;;;;;;7.88;2.83;;;5.20;99.90;;;;;;5067785;28;20079;-45
2024/01/06 06:31:09;;;;;;;6.95;1.98;;;5.20;99.90;;;;;;5067857;28;20083;-47
2024/01/06 06:33:34;;;;;;;7.55;2.20;;;5.20;99.90;;;;;;5067598;28;20294;-48
2024/01/06 06:36:01;;;;;;;7.93;2.25;;;5.20;99.90;;;;;;5067450;28;20086;-46
2024/01/06 06:38:27;;;;;;;8.48;1.92;;;5.10;99.90;;;;;;5066585;28;20025;-46
2024/01/06 06:40:52;;;;;;;10.07;2.00;;;5.10;99.90;;;;;;5048941;28;20233;-46
2024/01/06 06:43:18;;;;;;;9.57;3.40;;;5.10;99.90;;;;;;5067176;28;20021;-46
2024/01/06 06:45:44;;;;;;;9.27;2.33;;;5.10;99.90;;;;;;5067227;28;20025;-46
2024/01/06 06:48:10;;;;;;;6.85;1.90;;;5.10;99.90;;;;;;5067441;28;20060;-44
2024/01/06 06:50:35;;;;;;;14.68;12.20;;;5.10;99.90;;;;;;5067303;28;20051;-45
2024/01/06 06:53:01;;;;;;;10.02;3.10;;;5.10;99.90;;;;;;5067343;28;20747;-45
2024/01/06 06:55:27;;;;;;;8.57;3.08;;;5.10;99.90;;;;;;5067079;28;20048;-45
2024/01/06 06:57:53;;;;;;;8.48;2.25;;;5.10;99.90;;;;;;5066233;28;20043;-44
2024/01/06 07:00:19;;;;;;;11.48;2.17;;;5.10;99.90;;;;;;5067040;28;20021;-45
2024/01/06 07:02:45;;;;;;;8.55;1.80;;;5.10;99.90;;;;;;5066968;28;20044;-44
2024/01/06 07:05:10;;;;;;;6.03;1.85;;;5.20;99.90;;;;;;5066993;28;20195;-44
2024/01/06 07:07:37;;;;;;;7.28;1.77;;;5.20;99.90;;;;;;5065865;28;20035;-45
2024/01/06 07:10:04;;;;;;;4.30;1.55;;;5.20;99.90;;;;;;5066718;28;20053;-45
2024/01/06 07:12:31;;;;;;;6.95;1.60;;;5.10;99.90;;;;;;5065925;28;20142;-45
2024/01/06 07:14:58;;;;;;;8.13;1.92;;;5.10;99.90;;;;;;5066776;28;20048;-45
2024/01/06 07:17:23;;;;;;;8.27;1.77;;;5.10;99.90;;;;;;5066608;28;20036;-45
2024/01/06 07:19:49;;;;;;;6.50;1.65;;;5.10;99.90;;;;;;5066729;28;20036;-45
2024/01/06 07:22:16;;;;;;;8.52;1.95;;;5.10;99.90;;;;;;5065479;28;20029;-46
2024/01/06 07:24:42;;;;;;;5.85;1.60;;;5.00;99.90;;;;;;5066626;28;20044;-46
2024/01/06 07:27:07;;;;;;;7.65;2.25;;;5.00;99.90;;;;;;5066858;28;20040;-47
2024/01/06 07:29:33;;;;;;;7.45;1.40;;;5.00;99.90;;;;;;5066521;28;20025;-47
2024/01/06 07:31:59;;;;;;;7.88;2.20;;;4.90;99.90;;;;;;5066398;28;20088;-47
2024/01/06 07:34:25;;;;;;;5.57;1.70;;;4.90;99.90;;;;;;5065405;28;20036;-48
2024/01/06 07:36:51;;;;;;;12.30;3.72;;;4.90;99.90;;;;;;5065877;28;20294;-47
2024/01/06 07:39:16;;;;;;;6.75;3.28;;;4.80;99.90;;;;;;5065563;28;20032;-48
2024/01/06 07:41:42;;;;;;;9.25;6.95;;;4.90;99.90;;;;;;5065202;28;20056;-47
2024/01/06 07:44:08;;;;;;;8.60;2.08;;;4.90;99.90;;;;;;5065293;28;20182;-45
2024/01/06 07:46:35;;;;;;;6.45;2.05;;;5.00;99.90;;;;;;5065014;28;20064;-45
2024/01/06 07:49:00;;;;;;;9.60;1.80;;;5.00;99.90;;;;;;5066233;28;20053;-47
2024/01/06 07:51:26;;;;;;;13.27;2.67;;;5.10;99.90;;;;;;5064870;28;20352;-47
2024/01/06 07:53:51;;;;;;;13.48;2.50;;;5.10;99.90;;;;;;5065773;28;20032;-45
2024/01/06 07:56:18;;;;;;;11.38;2.03;;;5.20;99.90;;;;;;5064980;28;20036;-45
2024/01/06 07:58:44;;;;;;;10.00;2.65;;;5.20;99.90;;;;;;5048559;28;20039;-44
2024/01/06 08:01:09;;;;;;;5.18;1.63;;;5.10;99.90;;;;;;5065899;28;20187;-45
2024/01/06 08:03:35;;;;;;;7.18;1.90;;;5.00;99.90;;;;;;5066137;28;20029;-44
2024/01/06 08:06:01;;;;;;;5.05;2.00;;;5.00;99.90;;;;;;5065809;28;20152;-44
2024/01/06 08:08:27;;;;;;;11.48;2.22;;;5.00;99.90;;;;;;5065325;28;20283;-44
2024/01/06 08:10:52;;;;;;;7.60;1.80;;;5.00;99.90;;;;;;5065398;28;20098;-46
2024/01/06 08:13:18;;;;;;;9.80;2.53;;;5.00;99.90;;;;;;5065808;28;20052;-45
2024/01/06 08:15:43;;;;;;;8.80;2.22;;;5.00;99.90;;;;;;5065577;28;20028;-44
2024/01/06 08:18:09;;;;;;;9.02;2.08;;;5.00;99.90;;;;;;5065574;28;20143;-46
2024/01/06 08:20:35;;;;;;;14.48;2.08;;;5.00;99.90;;;;;;5064603;28;20065;-47
2024/01/06 08:23:00;;;;;;;8.75;2.10;;;5.00;99.90;;;;;;5065693;28;20040;-45
2024/01/06 08:25:26;;;;;;;8.40;1.77;;;5.00;99.90;;;;;;5065201;28;20305;-46
2024/01/06 08:27:52;;;;;;;9.45;2.08;;;5.00;99.90;;;;;;5065521;28;20084;-44
2024/01/06 08:30:17;;;;;;;7.25;2.05;;;5.00;99.90;;;;;;5065446;28;20040;-46
2024/01/06 08:32:43;;;;;;;6.50;2.10;;;5.00;99.90;;;;;;5065466;28;20048;-47
2024/01/06 08:35:09;;;;;;;7.78;2.20;;;4.80;99.90;;;;;;5065155;28;20056;-46
2024/01/06 08:37:35;;;;;;;11.77;3.60;;;4.70;99.90;;;;;;5065453;28;20044;-47
2024/01/06 08:40:01;;;;;;;10.02;3.10;;;4.60;99.90;;;;;;5065077;28;20092;-47
2024/01/06 08:42:27;;;;;;;8.88;3.03;;;4.60;99.90;;;;;;5065278;28;20184;-47
2024/01/06 08:44:52;;;;;;;9.18;2.50;;;4.60;99.90;;;;;;5065057;28;20082;-47
2024/01/06 08:47:18;;;;;;;5.82;2.08;;;4.50;99.90;;;;;;5064020;28;20089;-45
2024/01/06 08:49:44;;;;;;;8.10;1.95;;;4.50;99.90;;;;;;5064888;28;20029;-48
2024/01/06 08:52:09;;;;;;;11.93;2.30;;;4.60;99.90;;;;;;5065057;28;20061;-48
2024/01/06 08:54:35;;;;;;;10.27;2.95;;;4.60;99.90;;;;;;5064081;28;20037;-44
2024/01/06 08:57:01;;;;;;;6.65;2.58;;;4.60;99.90;;;;;;5064990;28;20025;-44
2024/01/06 08:59:26;;;;;;;11.13;2.38;;;4.60;99.90;;;;;;5064966;28;20063;-44
2024/01/06 09:01:52;;;;;;;12.35;4.60;;;4.60;99.90;;;;;;5064729;28;20029;-45
2024/01/06 09:04:18;;;;;;;8.98;3.33;;;4.60;99.90;;;;;;5067784;28;20274;-44
2024/01/06 09:06:46;;;;;;;7.40;2.85;;;4.70;99.90;;;;;;5068000;28;20039;-44
2024/01/06 09:09:12;;;;;;;12.45;3.17;;;4.70;99.90;;;;;;5068932;28;20096;-45
2024/01/06 09:11:37;;;;;;;8.30;2.92;;;4.70;99.90;;;;;;5068585;28;20029;-45
2024/01/06 09:14:03;;;;;;;9.20;3.15;;;4.70;99.90;;;;;;5068837;28;20041;-44
2024/01/06 09:16:29;;;;;;;7.13;2.75;;;4.70;99.90;;;;;;5068920;28;20029;-45
2024/01/06 09:18:55;;;;;;;9.82;2.35;;;4.70;99.90;;;;;;5069169;28;20075;-45
2024/01/06 09:21:21;;;;;;;8.80;2.22;;;4.70;99.90;;;;;;5068721;28;20055;-45
2024/01/06 09:23:46;;;;;;;5.55;2.28;;;4.70;99.90;;;;;;5068871;28;20267;-45
2024/01/06 09:26:12;;;;;;;5.22;2.40;;;4.70;99.90;;;;;;5069049;28;20036;-45
2024/01/06 09:28:39;;;;;;;9.50;2.60;;;4.80;99.90;;;;;;5068862;28;20041;-44
2024/01/06 09:31:05;;;;;;;9.93;3.70;;;5.00;99.90;;;;;;5068476;28;20028;-44
2024/01/06 09:33:32;;;;;;;8.45;2.75;;;5.10;99.90;;;;;;5068536;28;20033;-44
2024/01/06 09:35:58;;;;;;;4.93;2.50;;;5.20;99.90;;;;;;5068422;28;20029;-44
2024/01/06 09:38:23;;;;;;;7.68;3.33;;;5.30;99.90;;;;;;5050811;28;20043;-44
2024/01/06 09:40:49;;;;;;;9.65;3.85;;;5.30;99.90;;;;;;5067273;28;20025;-45
2024/01/06 09:43:15;;;;;;;9.27;3.33;;;5.40;99.90;;;;;;5067346;28;20025;-44
2024/01/06 09:45:41;;;;;;;7.57;2.30;;;5.40;99.90;;;;;;5068251;28;20287;-48
2024/01/06 09:48:15;;;;;;;5.88;2.00;;;5.40;99.90;;;;;;5068441;28;20036;-47
2024/01/06 09:50:42;;;;;;;8.23;2.60;;;5.50;99.90;;;;;;5067451;28;20037;-47
2024/01/06 09:53:10;;;;;;;7.45;2.03;;;5.50;99.90;;;;;;5068007;28;20307;-47
2024/01/06 09:55:36;;;;;;;7.28;2.70;;;5.50;99.90;;;;;;5067787;28;20218;-47
2024/01/06 09:58:02;;;;;;;7.50;2.90;;;5.60;99.90;;;;;;5068182;28;20086;-47
2024/01/06 10:00:28;;;;;;;6.65;2.10;;;5.70;99.90;;;;;;5068277;28;20025;-47
2024/01/06 10:02:54;;;;;;;11.68;2.88;;;5.70;99.90;;;;;;5067660;28;20052;-48
2024/01/06 10:05:20;;;;;;;7.93;2.00;;;5.70;99.90;;;;;;5067801;28;20047;-47
2024/01/06 10:07:46;;;;;;;9.25;2.30;;;5.90;99.90;;;;;;5067946;28;20028;-48
2024/01/06 10:10:12;;;;;;;8.77;2.15;;;5.90;99.90;;;;;;5066845;28;20057;-50
2024/01/06 10:12:40;;;;;;;9.48;2.10;;;6.00;99.90;;;;;;5066979;28;20290;-50
2024/01/06 10:15:07;;;;;;;6.60;1.98;;;6.00;99.90;;;;;;5067497;28;20041;-50
2024/01/06 10:17:36;;;;;;;5.57;2.17;;;6.20;99.90;;;;;;5067797;28;20040;-50
2024/01/06 10:20:01;;;;;;;9.00;2.35;;;6.30;99.90;;;;;;5066490;28;20029;-50
2024/01/06 10:22:27;;;;;;;11.27;2.28;;;6.50;99.90;;;;;;5066609;28;20028;-49
2024/01/06 10:24:54;;;;;;;9.25;2.30;;;6.70;99.90;;;;;;5067766;28;20033;-50
2024/01/06 10:27:20;;;;;;;7.40;2.60;;;6.90;99.90;;;;;;5067017;28;20055;-50
2024/01/06 10:29:46;;;;;;;6.95;2.60;;;7.00;99.90;;;;;;5050133;28;20025;-49
2024/01/06 10:32:12;;;;;;;6.18;2.28;;;7.00;99.90;;;;;;5049721;28;20095;-50
2024/01/06 10:34:37;;;;;;;12.93;4.25;;;7.00;99.90;;;;;;5066403;28;20060;-49
2024/01/06 10:37:03;;;;;;;8.43;2.53;;;7.00;99.90;;;;;;5067223;28;20032;-51
2024/01/06 10:39:29;;;;;;;10.25;3.50;;;7.00;99.90;;;;;;5067688;28;20025;-51
2024/01/06 10:41:55;;;;;;;9.07;2.90;;;7.00;99.90;;;;;;5067353;28;20016;-51
2024/01/06 10:44:21;;;;;;;6.28;1.80;;;6.90;99.90;;;;;;5067239;28;20267;-50
2024/01/06 10:46:47;;;;;;;8.38;2.47;;;6.90;99.90;;;;;;5067102;28;20040;-50
2024/01/06 10:49:13;;;;;;;7.82;2.40;;;6.90;99.90;;;;;;5067258;28;20013;-50
2024/01/06 10:51:38;;;;;;;7.95;2.28;;;6.90;99.90;;;;;;5066410;28;20024;-50
2024/01/06 10:54:05;;;;;;;6.85;2.17;;;6.90;99.90;;;;;;5066111;28;20025;-50
2024/01/06 10:56:31;;;;;;;6.20;2.17;;;7.00;99.90;;;;;;5066954;28;20286;-48
2024/01/06 10:58:57;;;;;;;11.63;2.00;;;7.00;99.90;;;;;;5049547;28;20041;-47
2024/01/06 11:01:27;;;;;;;10.70;2.30;;;7.10;99.90;;;;;;5067163;28;20074;-48
2024/01/06 11:03:52;;;;;;;6.35;1.88;;;7.20;99.90;;;;;;5049701;28;20039;-48
2024/01/06 11:06:18;;;;;;;7.65;1.42;;;7.30;99.90;;;;;;5065271;28;20029;-47
2024/01/06 11:08:49;;;;;;;9.30;2.30;;;7.40;99.90;;;;;;5066358;28;20057;-47
2024/01/06 11:11:18;;;;;;;12.20;2.53;;;7.50;99.90;;;;;;5066689;28;20029;-47
2024/01/06 11:13:45;;;;;;;25.65;12.25;;;7.60;99.90;;;;;;5065923;28;20163;-48
2024/01/06 11:16:11;;;;;;;9.80;2.33;;;7.70;99.90;;;;;;5066441;28;20071;-48
2024/01/06 11:18:38;;;;;;;8.68;2.20;;;7.80;99.90;;;;;;5066329;28;20036;-48
2024/01/06 11:21:24;;;;;;;11.05;1.95;;;8.00;99.90;;;;;;5066562;28;20035;-47
2024/01/06 11:24:11;;;;;;;6.07;3.10;;;8.00;99.90;;;;;;5066426;28;20032;-46
2024/01/06 11:26:42;;;;;;;11.70;1.95;;;8.10;99.90;;;;;;5066009;28;20033;-46
2024/01/06 11:29:07;;;;;;;7.20;2.65;;;8.30;99.90;;;;;;5065575;28;20194;-50
2024/01/06 11:31:33;;;;;;;7.32;2.03;;;8.50;99.90;;;;;;5065389;28;20029;-48
2024/01/06 11:34:18;;;;;;;6.90;1.85;;;8.60;99.90;;;;;;5066424;28;20048;-48
2024/01/06 11:36:45;;;;;;;6.43;1.60;;;8.80;99.90;;;;;;5048473;28;20116;-47
2024/01/06 11:39:42;;;;;;;5.70;1.75;;;8.90;99.90;;;;;;5065884;28;20073;-48
2024/01/06 11:42:10;;;;;;;6.60;2.60;;;9.00;99.90;;;;;;5065808;28;20096;-50
2024/01/06 11:44:39;;;;;;;8.77;4.38;;;8.80;99.90;;;;;;5065807;28;20096;-49
2024/01/06 11:47:06;;;;;;;8.38;2.10;;;8.80;99.90;;;;;;5065571;28;20033;-50
2024/01/06 11:49:32;;;;;;;5.80;1.55;;;9.10;99.90;;;;;;5065651;28;20097;-50
2024/01/06 11:51:58;;;;;;;5.60;1.55;;;9.20;99.90;;;;;;5064899;28;20025;-51
2024/01/06 11:54:24;;;;;;;5.88;1.73;;;9.20;99.90;;;;;;5065793;28;20036;-50
2024/01/06 11:56:49;;;;;;;14.98;2.80;;;9.10;99.90;;;;;;5066086;28;20029;-48
2024/01/06 11:59:15;;;;;;;8.18;1.95;;;8.90;99.90;;;;;;5065772;28;20071;-50
2024/01/06 12:01:42;;;;;;;6.05;3.05;;;8.80;99.90;;;;;;5065827;28;20029;-49
2024/01/06 12:04:07;;;;;;;7.70;2.60;;;8.70;99.90;;;;;;5064763;28;20029;-47
2024/01/06 12:06:33;;;;;;;8.77;2.10;;;8.80;99.90;;;;;;5048061;28;20029;-50
2024/01/06 12:09:10;;;;;;;6.40;1.85;;;10.90;99.90;;;;;;5065375;28;20049;-51
2024/01/06 12:11:37;;;;;;;7.13;1.83;;;12.60;99.90;;;;;;5065689;28;20051;-49
2024/01/06 12:14:03;;;;;;;7.78;1.58;;;13.80;99.90;;;;;;5064817;28;20305;-48
2024/01/06 12:16:28;;;;;;;5.00;1.60;;;14.90;99.90;;;;;;5047964;28;20017;-50
2024/01/06 12:18:55;;;;;;;6.22;1.80;;;15.70;99.90;;;;;;5065820;28;20179;-49
2024/01/06 12:21:24;;;;;;;4.80;1.60;;;14.70;99.90;;;;;;5064577;28;20029;-50
2024/01/06 12:23:49;;;;;;;6.00;2.00;;;15.00;99.90;;;;;;5065051;28;20191;-50
2024/01/06 12:26:17;;;;;;;5.15;1.30;;;15.50;99.90;;;;;;5065447;28;20092;-49
2024/01/06 12:28:53;;;;;;;5.38;1.30;;;15.70;99.90;;;;;;5047813;28;20033;-52
2024/01/06 12:31:20;;;;;;;3.95;1.60;;;15.40;99.90;;;;;;5064368;28;20131;-48
2024/01/06 12:33:46;;;;;;;4.00;1.85;;;16.40;99.90;;;;;;5064384;28;20079;-50
2024/01/06 12:36:11;;;;;;;8.88;2.15;;;16.80;99.90;;;;;;5047811;28;20029;-51
2024/01/06 12:38:37;;;;;;;6.30;2.17;;;16.80;99.90;;;;;;5064609;28;20029;-48
2024/01/06 12:41:04;;;;;;;9.05;3.35;;;16.90;99.90;;;;;;5065515;28;20347;-51
2024/01/06 12:43:30;;;;;;;6.85;2.80;;;16.80;99.90;;;;;;5065213;28;20024;-51
2024/01/06 12:45:57;;;;;;;6.40;2.13;;;16.90;99.90;;;;;;5064923;28;20020;-48
2024/01/06 12:48:23;;;;;;;6.65;1.60;;;17.20;99.90;;;;;;5065164;28;20211;-51
2024/01/06 12:50:49;;;;;;;13.10;4.45;;;17.40;99.90;;;;;;5047649;28;20067;-51